Time;durP1;ratioP1;P1;durP2;ratioP2;P2;SDS_P1;SDS_P2;PMS_P1;PMS_P2;Temp;Humidity;BMP_temperature;BMP_pressure;BME280_temperature;BME280_humidity;BME280_pressure;Samples;Min_cycle;Max_cycle;Signal;HPM_P1;HPM_P2
2022/06/25 00:01:14;;;;;;;;;;;;;;;19.72;53.47;100816.52;1701505;82;27494;-55
2022/06/25 00:03:41;;;;;;;;;;;;;;;19.61;53.74;100812.41;1702601;83;25720;-55
2022/06/25 00:06:08;;;;;;;;;;;;;;;19.55;55.03;100810.47;1696754;82;25857;-56
2022/06/25 00:08:37;;;;;;;;;;;;;;;19.44;54.63;100803.66;1687084;83;26315;-56
2022/06/25 00:11:05;;;;;;;;;;;;;;;19.39;55.28;100806.96;1706198;82;26036;-56
2022/06/25 00:13:32;;;;;;;;;;;;;;;19.30;54.74;100805.39;1711008;82;27473;-55
2022/06/25 00:15:58;;;;;;;;;;;;;;;19.26;55.71;100801.88;1704130;82;26033;-55
2022/06/25 00:18:26;;;;;;;;;;;;;;;19.17;55.42;100802.50;1698609;83;25693;-55
2022/06/25 00:20:53;;;;;;;;;;;;;;;19.10;55.14;100797.50;1700886;82;25791;-55
2022/06/25 00:23:20;;;;;;;;;;;;;;;19.07;54.93;100796.01;1699549;83;25907;-56
2022/06/25 00:25:46;;;;;;;;;;;;;;;19.06;54.84;100798.41;1698972;83;28279;-53
2022/06/25 00:28:13;;;;;;;;;;;;;;;19.05;55.06;100800.80;1698069;82;25694;-56
2022/06/25 00:30:39;;;;;;;;;;;;;;;19.02;55.01;100795.22;1707809;83;25684;-56
2022/06/25 00:33:06;;;;;;;;;;;;;;;19.01;54.89;100797.61;1697131;82;25835;-55
2022/06/25 00:35:33;;;;;;;;;;;;;;;18.99;54.85;100800.21;1705252;83;25823;-55
2022/06/25 00:37:59;;;;;;;;;;;;;;;18.96;54.97;100801.95;1707741;83;27549;-56
2022/06/25 00:40:26;;;;;;;;;;;;;;;18.89;55.52;100805.41;1721493;81;25835;-56
2022/06/25 00:42:53;;;;;;;;;;;;;;;18.79;55.31;100802.13;1716497;81;25694;-55
2022/06/25 00:45:19;;;;;;;;;;;;;;;18.74;54.70;100801.34;1722562;81;25875;-55
2022/06/25 00:47:46;;;;;;;;;;;;;;;18.70;54.84;100801.91;1712864;81;25926;-56
2022/06/25 00:50:12;;;;;;;;;;;;;;;18.67;55.24;100805.00;1709997;82;27585;-56
2022/06/25 00:52:42;;;;;;;;;;;;;;;18.62;55.13;100805.56;1716790;82;25692;-56
2022/06/25 00:55:11;;;;;;;;;;;;;;;18.60;55.21;100804.94;1713709;81;25746;-55
2022/06/25 00:57:42;;;;;;;;;;;;;;;18.57;54.99;100801.21;1713577;81;25868;-56
2022/06/25 01:00:12;;;;;;;;;;;;;;;18.51;55.62;100806.89;1716906;82;25858;-55
2022/06/25 01:02:40;;;;;;;;;;;;;;;18.48;55.68;100809.98;1722240;81;27680;-55
2022/06/25 01:05:11;;;;;;;;;;;;;;;18.43;55.83;100805.63;1716038;80;25678;-56
2022/06/25 01:07:40;;;;;;;;;;;;;;;18.41;55.80;100807.19;1719422;81;25725;-56
2022/06/25 01:10:08;;;;;;;;;;;;;;;18.41;55.98;100806.32;1718979;82;25837;-56
2022/06/25 01:12:35;;;;;;;;;;;;;;;18.35;56.33;100808.44;1715043;81;26109;-54
2022/06/25 01:15:09;;;;;;;;;;;;;;;18.28;56.66;100814.64;1721884;80;27555;-55
2022/06/25 01:17:41;;;;;;;;;;;;;;;18.24;56.71;100814.67;1699178;80;26525;-55
2022/06/25 01:20:10;;;;;;;;;;;;;;;18.19;56.65;100817.61;1724161;81;25762;-54
2022/06/25 01:22:36;;;;;;;;;;;;;;;18.14;57.11;100827.20;1720474;80;26576;-56
2022/06/25 01:25:07;;;;;;;;;;;;;;;18.09;57.17;100835.05;1714331;82;25861;-53
2022/06/25 01:27:34;;;;;;;;;;;;;;;18.05;57.69;100837.83;1712153;82;27601;-55
2022/06/25 01:30:00;;;;;;;;;;;;;;;18.01;57.79;100837.86;1711387;82;25922;-55
2022/06/25 01:32:26;;;;;;;;;;;;;;;17.96;57.56;100835.69;1710683;82;25434;-55
2022/06/25 01:34:53;;;;;;;;;;;;;;;17.92;57.63;100832.98;1720824;81;25722;-55
2022/06/25 01:37:21;;;;;;;;;;;;;;;17.89;58.27;100826.53;1709848;82;25694;-54
2022/06/25 01:39:55;;;;;;;;;;;;;;;17.78;58.37;100825.10;1716155;81;28383;-55
2022/06/25 01:45:13;;;;;;;;;;;;;;;17.71;58.51;100826.83;1707176;82;25713;-56
2022/06/25 01:47:42;;;;;;;;;;;;;;;17.63;59.70;100835.06;1705795;82;26675;-55
2022/06/25 01:50:09;;;;;;;;;;;;;;;17.55;59.37;100836.48;1692547;83;25776;-55
2022/06/25 01:52:36;;;;;;;;;;;;;;;17.52;59.85;100836.33;1696639;81;27634;-55
2022/06/25 01:55:04;;;;;;;;;;;;;;;17.48;59.71;100837.21;1703349;82;25743;-55
2022/06/25 01:57:30;;;;;;;;;;;;;;;17.44;59.62;100838.58;1701668;82;25803;-54
2022/06/25 01:59:59;;;;;;;;;;;;;;;17.39;59.63;100846.45;1697123;82;26566;-55
2022/06/25 02:02:26;;;;;;;;;;;;;;;17.39;59.85;100841.53;1699165;80;25892;-55
2022/06/25 02:04:53;;;;;;;;;;;;;;;17.40;60.11;100839.98;1699176;82;27494;-55
2022/06/25 02:07:21;;;;;;;;;;;;;;;17.36;60.55;100849.02;1699611;82;25747;-55
2022/06/25 02:09:47;;;;;;;;;;;;;;;17.28;61.24;100844.13;1703977;82;25773;-54
2022/06/25 02:12:15;;;;;;;;;;;;;;;17.21;61.36;100849.45;1702005;82;25955;-53
2022/06/25 02:14:41;;;;;;;;;;;;;;;17.18;61.12;100850.63;1694245;83;26301;-55
2022/06/25 02:17:08;;;;;;;;;;;;;;;17.12;62.72;100855.43;1692430;82;26933;-54
2022/06/25 02:19:34;;;;;;;;;;;;;;;17.00;62.06;100863.63;1697587;82;25807;-53
2022/06/25 02:22:04;;;;;;;;;;;;;;;16.98;62.11;100863.81;1695991;81;25788;-54
2022/06/25 02:24:31;;;;;;;;;;;;;;;16.99;62.30;100868.72;1687657;82;25848;-54
2022/06/25 02:26:58;;;;;;;;;;;;;;;16.99;62.13;100868.72;1708065;83;25836;-56
2022/06/25 02:29:25;;;;;;;;;;;;;;;16.99;61.93;100871.44;1699691;82;27476;-55
2022/06/25 02:31:51;;;;;;;;;;;;;;;17.02;61.82;100875.17;1692327;82;25955;-55
2022/06/25 02:34:19;;;;;;;;;;;;;;;17.02;61.79;100872.45;1704053;82;25954;-55
2022/06/25 02:36:46;;;;;;;;;;;;;;;16.99;61.75;100874.16;1696251;81;25834;-55
2022/06/25 02:39:12;;;;;;;;;;;;;;;16.95;61.97;100876.38;1699828;83;25808;-56
2022/06/25 02:41:40;;;;;;;;;;;;;;;16.94;62.28;100880.64;1724304;82;27609;-55
2022/06/25 02:44:08;;;;;;;;;;;;;;;16.90;62.04;100883.67;1716058;82;25878;-55
2022/06/25 02:46:36;;;;;;;;;;;;;;;16.84;62.42;100880.83;1705048;82;25843;-55
2022/06/25 02:49:03;;;;;;;;;;;;;;;16.82;62.44;100888.30;1723657;80;25812;-55
2022/06/25 02:51:31;;;;;;;;;;;;;;;16.79;62.54;100886.79;1727653;81;25794;-55
2022/06/25 02:54:00;;;;;;;;;;;;;;;16.78;62.61;100890.52;1730186;81;28350;-55
2022/06/25 02:59:12;;;;;;;;;;;;;;;16.79;62.17;100892.72;1729469;81;25736;-55
2022/06/25 03:01:41;;;;;;;;;;;;;;;16.77;62.04;100894.25;1725808;82;26036;-55
2022/06/25 03:04:07;;;;;;;;;;;;;;;16.76;62.42;100900.70;1714398;82;25779;-55
2022/06/25 03:06:34;;;;;;;;;;;;;;;16.73;62.18;100895.61;1717804;82;27545;-55
2022/06/25 03:09:01;;;;;;;;;;;;;;;16.72;62.03;100899.34;1729160;80;25694;-55
2022/06/25 03:11:28;;;;;;;;;;;;;;;16.70;62.23;100897.34;1736273;81;25802;-55
2022/06/25 03:13:55;;;;;;;;;;;;;;;16.65;63.00;100896.50;1727656;81;25931;-55
2022/06/25 03:16:22;;;;;;;;;;;;;;;16.61;62.49;100897.85;1736748;80;25960;-57
2022/06/25 03:18:51;;;;;;;;;;;;;;;16.62;62.59;100898.20;1738723;81;27489;-56
2022/06/25 03:21:37;;;;;;;;;;;;;;;16.64;62.45;100904.80;1732336;81;26406;-55
2022/06/25 03:24:07;;;;;;;;;;;;;;;16.66;62.40;100900.05;1731979;80;25759;-54
2022/06/25 03:26:34;;;;;;;;;;;;;;;16.67;62.39;100907.18;1722340;81;25811;-55
2022/06/25 03:29:03;;;;;;;;;;;;;;;16.68;62.51;100905.64;1731986;80;25882;-55
2022/06/25 03:31:30;;;;;;;;;;;;;;;16.71;62.28;100905.30;1739366;80;27521;-55
2022/06/25 03:33:58;;;;;;;;;;;;;;;16.74;62.20;100904.10;1718457;81;25949;-53
2022/06/25 03:36:26;;;;;;;;;;;;;;;16.79;62.36;100915.31;1735691;81;25998;-54
2022/06/25 03:38:54;;;;;;;;;;;;;;;16.81;62.35;100911.89;1727254;81;25796;-55
2022/06/25 03:41:35;;;;;;;;;;;;;;;16.85;62.24;100911.89;1723356;81;25846;-52
2022/06/25 03:44:13;;;;;;;;;;;;;;;16.88;62.29;100914.77;1718570;81;27492;-55
2022/06/25 03:46:40;;;;;;;;;;;;;;;16.93;62.51;100927.83;1707144;81;26362;-54
2022/06/25 03:49:07;;;;;;;;;;;;;;;16.94;62.68;100930.42;1732957;81;25666;-54
2022/06/25 03:51:38;;;;;;;;;;;;;;;16.95;62.27;100929.38;1718634;81;25845;-55
2022/06/25 03:54:06;;;;;;;;;;;;;;;17.02;62.14;100929.03;1726894;81;25694;-55
2022/06/25 03:56:32;;;;;;;;;;;;;;;17.11;62.17;100931.20;1722412;81;27494;-55
2022/06/25 03:58:59;;;;;;;;;;;;;;;17.18;61.95;100926.75;1716675;82;25786;-53
2022/06/25 04:01:27;;;;;;;;;;;;;;;17.26;61.95;100924.52;1731500;81;25839;-54
2022/06/25 04:03:55;;;;;;;;;;;;;;;17.38;61.87;100925.50;1728822;81;25865;-54
2022/06/25 04:06:22;;;;;;;;;;;;;;;17.44;61.62;100924.25;1729346;82;25428;-55
2022/06/25 04:08:50;;;;;;;;;;;;;;;17.51;61.79;100921.67;1730132;81;27488;-53
2022/06/25 04:11:18;;;;;;;;;;;;;;;17.58;61.84;100923.17;1738381;81;25827;-55
2022/06/25 04:13:46;;;;;;;;;;;;;;;17.61;61.27;100929.63;1722499;81;25693;-55
2022/06/25 04:16:13;;;;;;;;;;;;;;;17.63;60.89;100927.55;1712070;81;26770;-55
2022/06/25 04:18:40;;;;;;;;;;;;;;;17.68;60.67;100928.70;1723505;82;26382;-54
2022/06/25 04:21:07;;;;;;;;;;;;;;;17.81;60.77;100934.09;1730564;82;27478;-55
2022/06/25 04:23:34;;;;;;;;;;;;;;;17.90;60.66;100926.70;1719094;81;25797;-55
2022/06/25 04:26:01;;;;;;;;;;;;;;;17.98;60.32;100928.03;1724913;81;25736;-55
2022/06/25 04:31:18;;;;;;;;;;;;;;;18.15;60.16;100925.52;1727704;81;25744;-56
2022/06/25 04:33:44;;;;;;;;;;;;;;;18.21;59.78;100927.19;1727763;81;27536;-55
2022/06/25 04:36:11;;;;;;;;;;;;;;;18.28;59.70;100921.34;1717344;81;25859;-54
2022/06/25 04:38:42;;;;;;;;;;;;;;;18.28;58.87;100929.51;1717829;82;25408;-55
2022/06/25 04:41:09;;;;;;;;;;;;;;;18.22;58.47;100937.06;1718349;82;25822;-56
2022/06/25 04:43:36;;;;;;;;;;;;;;;18.17;58.43;100936.24;1739221;80;25898;-55
2022/06/25 04:46:04;;;;;;;;;;;;;;;18.20;58.44;100930.41;1733986;80;27887;-53
2022/06/25 04:48:33;;;;;;;;;;;;;;;18.21;58.34;100940.27;1703125;83;25740;-54
2022/06/25 04:51:01;;;;;;;;;;;;;;;18.22;58.09;100939.25;1693896;82;25614;-54
2022/06/25 04:53:29;;;;;;;;;;;;;;;18.24;57.77;100937.73;1694415;82;26391;-55
2022/06/25 04:55:55;;;;;;;;;;;;;;;18.26;57.68;100939.73;1703729;82;25932;-55
2022/06/25 04:58:22;;;;;;;;;;;;;;;18.32;57.71;100936.30;1685896;82;27528;-55
2022/06/25 05:01:06;;;;;;;;;;;;;;;18.41;57.59;100940.64;1700190;82;25860;-55
2022/06/25 05:03:33;;;;;;;;;;;;;;;18.50;57.40;100947.38;1701865;83;25801;-57
2022/06/25 05:06:08;;;;;;;;;;;;;;;18.54;57.29;100948.19;1698947;81;26020;-55
2022/06/25 05:08:35;;;;;;;;;;;;;;;18.59;57.12;100949.83;1697701;83;25926;-56
2022/06/25 05:11:02;;;;;;;;;;;;;;;18.60;56.75;100944.71;1695827;83;28357;-55
2022/06/25 05:13:29;;;;;;;;;;;;;;;18.65;56.70;100944.69;1705062;82;25508;-54
2022/06/25 05:15:57;;;;;;;;;;;;;;;18.70;56.22;100944.43;1696263;82;25820;-55
2022/06/25 05:18:23;;;;;;;;;;;;;;;18.74;56.16;100943.54;1688181;83;25900;-55
2022/06/25 05:20:50;;;;;;;;;;;;;;;18.82;56.10;100949.44;1687075;82;25845;-55
2022/06/25 05:23:17;;;;;;;;;;;;;;;18.89;56.00;100944.92;1637854;85;27576;-54
2022/06/25 05:25:45;;;;;;;;;;;;;;;18.95;55.97;100944.73;1642752;85;25853;-55
2022/06/25 05:28:13;;;;;;;;;;;;;;;18.98;55.72;100938.91;1695892;82;25895;-55
2022/06/25 05:30:41;;;;;;;;;;;;;;;19.01;55.82;100935.79;1699706;81;26734;-54
2022/06/25 05:33:08;;;;;;;;;;;;;;;19.04;55.99;100941.73;1697219;82;25893;-54
2022/06/25 05:35:35;;;;;;;;;;;;;;;19.07;55.79;100944.59;1700385;82;27491;-55
2022/06/25 05:38:02;;;;;;;;;;;;;;;19.13;55.83;100948.45;1693871;82;25848;-54
2022/06/25 05:40:28;;;;;;;;;;;;;;;19.18;55.78;100950.09;1708530;82;25933;-55
2022/06/25 05:42:55;;;;;;;;;;;;;;;19.24;55.87;100952.05;1726757;81;26414;-55
2022/06/25 05:45:21;;;;;;;;;;;;;;;19.31;55.76;100953.01;1721246;81;25707;-55
2022/06/25 05:47:48;;;;;;;;;;;;;;;19.37;55.58;100954.97;1715680;82;27565;-55
2022/06/25 05:50:15;;;;;;;;;;;;;;;19.43;55.74;100954.73;1698317;82;25887;-55
2022/06/25 05:52:41;;;;;;;;;;;;;;;19.50;55.56;100950.70;1710257;82;25739;-55
2022/06/25 05:55:08;;;;;;;;;;;;;;;19.57;55.40;100954.38;1700511;82;26021;-55
2022/06/25 05:57:35;;;;;;;;;;;;;;;19.64;55.38;100960.75;1708923;82;25874;-56
2022/06/25 06:00:03;;;;;;;;;;;;;;;19.71;55.21;100961.67;1696191;82;27564;-54
2022/06/25 06:02:32;;;;;;;;;;;;;;;19.79;55.06;100959.36;1701347;82;25779;-54
2022/06/25 06:04:58;;;;;;;;;;;;;;;19.88;55.02;100962.83;1701303;81;25827;-55
2022/06/25 06:07:25;;;;;;;;;;;;;;;19.95;54.98;100958.81;1700100;82;25872;-55
2022/06/25 06:09:52;;;;;;;;;;;;;;;20.02;54.82;100959.72;1703673;82;25434;-55
2022/06/25 06:12:18;;;;;;;;;;;;;;;20.11;54.78;100956.36;1707821;82;27499;-53
2022/06/25 06:14:46;;;;;;;;;;;;;;;20.20;54.70;100960.65;1700235;81;25802;-56
2022/06/25 06:17:12;;;;;;;;;;;;;;;20.27;54.63;100957.95;1710349;82;25998;-55
2022/06/25 06:19:38;;;;;;;;;;;;;;;20.39;54.36;100956.40;1709314;81;26007;-55
2022/06/25 06:22:05;;;;;;;;;;;;;;;20.47;54.37;100948.59;1704250;82;27325;-55
2022/06/25 06:24:32;;;;;;;;;;;;;;;20.57;54.57;100955.94;1712483;82;27661;-55
2022/06/25 06:27:00;;;;;;;;;;;;;;;20.64;54.42;100955.45;1700675;81;25888;-56
2022/06/25 06:29:27;;;;;;;;;;;;;;;20.76;54.43;100963.12;1708075;82;25783;-54
2022/06/25 06:31:53;;;;;;;;;;;;;;;20.85;54.34;100957.82;1707266;82;26626;-56
2022/06/25 06:34:20;;;;;;;;;;;;;;;20.94;54.38;100957.98;1713885;81;25831;-55
2022/06/25 06:36:46;;;;;;;;;;;;;;;21.08;54.43;100960.83;1713435;81;27522;-54
2022/06/25 06:39:13;;;;;;;;;;;;;;;21.23;54.57;100967.00;1708575;82;25981;-55
2022/06/25 06:41:40;;;;;;;;;;;;;;;21.35;54.49;100963.70;1694766;82;25470;-54
2022/06/25 06:44:07;;;;;;;;;;;;;;;21.45;54.04;100960.06;1685938;82;25951;-54
2022/06/25 06:46:34;;;;;;;;;;;;;;;21.54;53.84;100961.58;1696662;82;25779;-56
2022/06/25 06:49:01;;;;;;;;;;;;;;;21.65;53.53;100964.81;1725752;81;27537;-55
2022/06/25 06:51:27;;;;;;;;;;;;;;;21.79;52.39;100965.67;1730003;81;26428;-55
2022/06/25 06:53:54;;;;;;;;;;;;;;;21.89;52.46;100962.02;1734179;81;25748;-55
2022/06/25 06:56:21;;;;;;;;;;;;;;;22.03;52.20;100965.13;1731366;80;27993;-55
2022/06/25 06:58:48;;;;;;;;;;;;;;;22.13;51.98;100962.51;1734050;80;25812;-57
2022/06/25 07:01:15;;;;;;;;;;;;;;;22.20;52.08;100957.88;1732310;80;27555;-56
2022/06/25 07:03:41;;;;;;;;;;;;;;;22.27;51.92;100960.09;1724264;81;26027;-55
2022/06/25 07:06:08;;;;;;;;;;;;;;;22.35;51.33;100955.77;1719955;81;25464;-55
2022/06/25 07:08:35;;;;;;;;;;;;;;;22.44;51.41;100956.45;1729932;81;26579;-56
2022/06/25 07:11:02;;;;;;;;;;;;;;;22.50;51.51;100959.71;1735532;81;27360;-55
2022/06/25 07:13:30;;;;;;;;;;;;;;;22.57;51.34;100960.23;1727131;81;28262;-56
2022/06/25 07:15:57;;;;;;;;;;;;;;;22.65;51.18;100958.64;1726145;81;25898;-55
2022/06/25 07:18:23;;;;;;;;;;;;;;;22.78;50.61;100955.91;1725016;80;25776;-54
2022/06/25 07:20:50;;;;;;;;;;;;;;;22.90;49.60;100960.74;1732206;81;25811;-55
2022/06/25 07:23:16;;;;;;;;;;;;;;;23.01;49.85;100961.98;1729178;80;25705;-56
2022/06/25 07:25:43;;;;;;;;;;;;;;;23.09;49.71;100954.34;1729039;81;27520;-55
2022/06/25 07:28:09;;;;;;;;;;;;;;;23.22;49.84;100958.98;1731099;81;25688;-56
2022/06/25 07:30:36;;;;;;;;;;;;;;;23.36;49.60;100958.95;1725832;81;25811;-56
2022/06/25 07:33:03;;;;;;;;;;;;;;;23.47;49.65;100951.93;1737346;81;25802;-55
2022/06/25 07:35:29;;;;;;;;;;;;;;;23.60;48.36;100947.77;1735262;80;25614;-56
2022/06/25 07:37:56;;;;;;;;;;;;;;;23.72;48.57;100954.78;1723360;81;27750;-55
2022/06/25 07:40:24;;;;;;;;;;;;;;;23.84;47.97;100954.92;1733755;80;25930;-56
2022/06/25 07:42:51;;;;;;;;;;;;;;;24.00;47.71;100955.80;1750571;80;25893;-55
2022/06/25 07:45:18;;;;;;;;;;;;;;;24.14;47.20;100951.59;1751255;80;25697;-54
2022/06/25 07:47:45;;;;;;;;;;;;;;;24.25;47.32;100951.41;1715939;80;25841;-55
2022/06/25 07:52:58;;;;;;;;;;;;;;;24.48;47.14;100947.50;1700056;82;25777;-55
2022/06/25 07:55:25;;;;;;;;;;;;;;;24.68;47.39;100948.75;1711089;82;25811;-56
2022/06/25 07:57:51;;;;;;;;;;;;;;;24.89;46.59;100949.37;1711245;82;25809;-54
2022/06/25 08:00:18;;;;;;;;;;;;;;;25.15;45.17;100951.02;1716196;82;25791;-55
2022/06/25 08:02:44;;;;;;;;;;;;;;;25.38;44.21;100943.95;1735866;80;27490;-55
2022/06/25 08:05:11;;;;;;;;;;;;;;;25.61;43.89;100943.27;1721896;81;25479;-55
2022/06/25 08:07:37;;;;;;;;;;;;;;;25.85;43.46;100944.76;1738410;80;25822;-56
2022/06/25 08:10:05;;;;;;;;;;;;;;;26.00;43.02;100935.20;1733983;81;25847;-56
2022/06/25 08:12:32;;;;;;;;;;;;;;;26.14;42.58;100943.59;1729931;82;26107;-55
2022/06/25 08:15:00;;;;;;;;;;;;;;;26.23;41.79;100933.91;1715941;81;27623;-55
2022/06/25 08:17:26;;;;;;;;;;;;;;;26.22;41.97;100943.25;1721181;81;25779;-55
2022/06/25 08:19:53;;;;;;;;;;;;;;;26.26;40.84;100933.98;1735274;81;25803;-56
2022/06/25 08:22:19;;;;;;;;;;;;;;;26.35;39.18;100936.70;1730007;81;25822;-56
2022/06/25 08:24:46;;;;;;;;;;;;;;;26.46;39.87;100932.27;1733582;81;26119;-55
2022/06/25 08:27:13;;;;;;;;;;;;;;;26.55;39.01;100929.45;1724099;82;27395;-55
2022/06/25 08:29:40;;;;;;;;;;;;;;;26.59;39.33;100934.47;1736037;81;25787;-55
2022/06/25 08:32:07;;;;;;;;;;;;;;;26.66;39.51;100937.42;1735769;81;25788;-56
2022/06/25 08:34:33;;;;;;;;;;;;;;;26.71;39.64;100933.42;1696404;82;26692;-56
2022/06/25 08:36:59;;;;;;;;;;;;;;;26.76;40.06;100935.98;1697630;82;25488;-56
2022/06/25 08:39:26;;;;;;;;;;;;;;;26.79;39.58;100938.30;1734500;80;27444;-56
2022/06/25 08:41:54;;;;;;;;;;;;;;;26.76;37.64;100931.84;1740330;81;25711;-55
2022/06/25 08:44:20;;;;;;;;;;;;;;;26.59;38.63;100934.47;1742985;80;25882;-56
2022/06/25 08:46:47;;;;;;;;;;;;;;;26.45;39.25;100933.34;1731068;80;25967;-55
2022/06/25 08:49:16;;;;;;;;;;;;;;;26.49;39.14;100928.19;1728059;81;25911;-56
2022/06/25 08:51:45;;;;;;;;;;;;;;;26.68;38.62;100930.28;1717594;82;27491;-56
2022/06/25 08:54:12;;;;;;;;;;;;;;;26.80;38.16;100927.56;1716484;82;25990;-56
2022/06/25 08:56:38;;;;;;;;;;;;;;;26.82;36.62;100924.00;1718346;82;25808;-56
2022/06/25 08:59:05;;;;;;;;;;;;;;;26.75;37.59;100926.88;1723673;81;25809;-54
2022/06/25 09:01:31;;;;;;;;;;;;;;;26.80;37.40;100933.09;1697434;82;26412;-56
2022/06/25 09:03:58;;;;;;;;;;;;;;;26.99;37.93;100922.73;1718916;81;27488;-55
2022/06/25 09:06:25;;;;;;;;;;;;;;;27.20;37.89;100918.48;1723812;81;25886;-55
2022/06/25 09:09:13;;;;;;;;;;;;;;;27.36;37.43;100918.79;1717236;81;25415;-56
2022/06/25 09:11:52;;;;;;;;;;;;;;;27.39;36.93;100921.90;1718856;81;26026;-55
2022/06/25 09:14:21;;;;;;;;;;;;;;;27.34;37.57;100928.16;1723707;81;25865;-55
2022/06/25 09:16:56;;;;;;;;;;;;;;;27.36;37.65;100929.31;1716899;81;27272;-54
2022/06/25 09:19:34;;;;;;;;;;;;;;;27.43;37.58;100930.59;1719894;82;25790;-56
2022/06/25 09:22:04;;;;;;;;;;;;;;;27.51;36.88;100927.44;1726051;82;25804;-55
2022/06/25 09:24:46;;;;;;;;;;;;;;;27.71;36.94;100921.98;1710940;82;25855;-56
2022/06/25 09:27:36;;;;;;;;;;;;;;;28.20;34.98;100913.20;1712955;82;25439;-56
2022/06/25 09:30:12;;;;;;;;;;;;;;;28.47;34.42;100920.30;1723335;82;27547;-56
2022/06/25 09:32:51;;;;;;;;;;;;;;;28.82;33.37;100919.74;1722041;81;25884;-54
2022/06/25 09:35:35;;;;;;;;;;;;;;;28.84;33.63;100929.46;1732222;82;25511;-54
2022/06/25 09:38:16;;;;;;;;;;;;;;;28.80;33.05;100928.84;1711628;81;26785;-56
2022/06/25 09:40:54;;;;;;;;;;;;;;;28.73;32.84;100931.22;1721923;81;26091;-56
2022/06/25 09:43:23;;;;;;;;;;;;;;;28.77;33.54;100933.49;1723421;81;27612;-56
2022/06/25 09:45:52;;;;;;;;;;;;;;;29.03;33.04;100936.09;1726876;80;25794;-56
2022/06/25 09:48:28;;;;;;;;;;;;;;;29.11;32.50;100923.17;1702745;82;25662;-56
2022/06/25 09:51:11;;;;;;;;;;;;;;;29.24;32.37;100927.49;1700852;82;25882;-57
2022/06/25 09:53:50;;;;;;;;;;;;;;;29.23;33.49;100926.38;1700302;82;25515;-56
2022/06/25 09:56:25;;;;;;;;;;;;;;;29.31;32.97;100928.69;1697054;82;27509;-57
2022/06/25 09:58:53;;;;;;;;;;;;;;;29.32;32.88;100931.75;1691649;82;25468;-57
2022/06/25 10:01:23;;;;;;;;;;;;;;;29.32;31.98;100938.15;1700510;82;25751;-56
2022/06/25 10:03:51;;;;;;;;;;;;;;;29.65;32.94;100923.83;1694797;83;25843;-56
2022/06/25 10:06:21;;;;;;;;;;;;;;;29.86;31.49;100920.42;1692733;82;25765;-56
2022/06/25 10:08:51;;;;;;;;;;;;;;;29.69;31.82;100927.48;1703235;82;27493;-56
2022/06/25 10:11:20;;;;;;;;;;;;;;;29.69;32.20;100919.98;1702016;82;25832;-55
2022/06/25 10:13:51;;;;;;;;;;;;;;;30.01;31.67;100919.23;1699094;82;25747;-55
2022/06/25 10:16:20;;;;;;;;;;;;;;;30.13;31.70;100918.48;1707889;81;25825;-56
2022/06/25 10:18:52;;;;;;;;;;;;;;;30.11;31.15;100922.10;1698073;82;25756;-56
2022/06/25 10:21:20;;;;;;;;;;;;;;;29.92;32.26;100925.79;1706174;82;27550;-57
2022/06/25 10:23:53;;;;;;;;;;;;;;;30.14;32.55;100911.84;1695649;83;25908;-56
2022/06/25 10:26:20;;;;;;;;;;;;;;;30.94;30.27;100910.74;1699035;82;25518;-55
2022/06/25 10:28:47;;;;;;;;;;;;;;;31.65;30.27;100906.57;1698019;81;25840;-55
2022/06/25 10:31:17;;;;;;;;;;;;;;;31.80;29.69;100896.88;1709955;83;25702;-55
2022/06/25 10:33:57;;;;;;;;;;;;;;;32.50;29.39;100903.03;1695919;82;27655;-55
2022/06/25 10:36:45;;;;;;;;;;;;;;;33.16;28.13;100900.63;1696075;82;25816;-56
2022/06/25 10:39:31;;;;;;;;;;;;;;;32.74;27.58;100899.05;1696456;81;25875;-56
2022/06/25 10:45:08;;;;;;;;;;;;;;;33.85;25.33;100885.47;1697597;83;25464;-57
2022/06/25 10:47:40;;;;;;;;;;;;;;;34.21;25.54;100887.69;1686134;82;27550;-56
2022/06/25 10:50:23;;;;;;;;;;;;;;;34.86;24.58;100895.68;1691652;83;25913;-56
2022/06/25 10:53:06;;;;;;;;;;;;;;;35.29;25.21;100892.64;1693649;83;25451;-56
2022/06/25 10:55:42;;;;;;;;;;;;;;;35.80;24.50;100891.94;1689062;83;25834;-56
2022/06/25 10:58:21;;;;;;;;;;;;;;;35.55;24.19;100888.95;1685849;82;27406;-56
2022/06/25 11:00:53;;;;;;;;;;;;;;;34.75;24.91;100893.58;1694441;83;28484;-57
2022/06/25 11:03:32;;;;;;;;;;;;;;;35.00;25.02;100893.02;1681814;82;25521;-57
2022/06/25 11:06:00;;;;;;;;;;;;;;;35.60;23.10;100880.47;1694350;83;25841;-56
2022/06/25 11:08:36;;;;;;;;;;;;;;;35.62;23.88;100882.41;1683423;83;25805;-56
2022/06/25 11:11:05;;;;;;;;;;;;;;;35.16;23.71;100889.47;1685170;83;25716;-56
2022/06/25 11:13:32;;;;;;;;;;;;;;;35.26;24.25;100885.69;1692765;83;27498;-56
2022/06/25 11:15:59;;;;;;;;;;;;;;;35.74;23.23;100874.94;1707973;81;25912;-56
2022/06/25 11:18:27;;;;;;;;;;;;;;;36.10;22.72;100873.55;1713614;81;36058;-56
2022/06/25 11:20:53;;;;;;;;;;;;;;;36.34;23.00;100878.41;1730263;81;25891;-57
2022/06/25 11:23:20;;;;;;;;;;;;;;;36.94;23.70;100870.30;1726620;82;25728;-56
2022/06/25 11:28:47;;;;;;;;;;;;;;;37.98;22.34;100873.81;1718327;81;26486;-56
2022/06/25 11:31:15;;;;;;;;;;;;;;;37.33;22.62;100874.50;1737417;81;25841;-56
2022/06/25 11:33:43;;;;;;;;;;;;;;;36.37;22.42;100873.34;1726147;81;25936;-56
2022/06/25 11:36:11;;;;;;;;;;;;;;;35.18;23.75;100869.05;1732461;81;25756;-56
2022/06/25 11:38:40;;;;;;;;;;;;;;;34.27;24.20;100874.78;1725036;81;27513;-55
2022/06/25 11:41:07;;;;;;;;;;;;;;;33.42;24.68;100866.21;1718764;82;25808;-56
2022/06/25 11:43:37;;;;;;;;;;;;;;;32.83;25.13;100865.36;1728252;82;25845;-56
2022/06/25 11:46:03;;;;;;;;;;;;;;;33.55;24.83;100865.58;1720844;80;26738;-56
2022/06/25 11:48:31;;;;;;;;;;;;;;;34.23;24.11;100859.73;1727612;81;26426;-56
2022/06/25 11:51:03;;;;;;;;;;;;;;;34.97;24.28;100857.86;1741509;81;28197;-56
2022/06/25 11:53:30;;;;;;;;;;;;;;;36.02;23.47;100854.92;1722167;81;25766;-56
2022/06/25 11:55:59;;;;;;;;;;;;;;;37.24;22.07;100850.56;1723171;81;25900;-56
2022/06/25 11:58:26;;;;;;;;;;;;;;;37.92;21.81;100856.03;1733203;80;25923;-56
2022/06/25 12:00:57;;;;;;;;;;;;;;;37.97;20.14;100852.49;1734636;80;25742;-56
2022/06/25 12:03:25;;;;;;;;;;;;;;;37.15;21.31;100857.25;1729996;81;27437;-56
2022/06/25 12:05:54;;;;;;;;;;;;;;;36.16;22.61;100855.52;1725190;80;25834;-56
2022/06/25 12:08:24;;;;;;;;;;;;;;;35.38;23.15;100858.67;1722791;80;25693;-57
2022/06/25 12:10:53;;;;;;;;;;;;;;;34.60;24.10;100859.66;1720073;82;25880;-57
2022/06/25 12:13:20;;;;;;;;;;;;;;;34.23;25.48;100865.32;1729117;82;26074;-55
2022/06/25 12:15:49;;;;;;;;;;;;;;;34.06;24.51;100857.95;1719546;81;27544;-56
2022/06/25 12:18:16;;;;;;;;;;;;;;;35.08;23.72;100853.80;1725187;81;25906;-56
2022/06/25 12:20:56;;;;;;;;;;;;;;;35.42;23.86;100847.19;1733310;81;26602;-56
2022/06/25 12:23:23;;;;;;;;;;;;;;;35.70;23.59;100851.52;1732654;81;26471;-56
2022/06/25 12:25:50;;;;;;;;;;;;;;;35.81;24.45;100851.63;1714973;82;25609;-56
2022/06/25 12:28:16;;;;;;;;;;;;;;;36.63;23.00;100848.47;1729288;80;27548;-56
2022/06/25 12:30:43;;;;;;;;;;;;;;;37.45;21.28;100847.31;1729302;81;26308;-56
2022/06/25 12:33:15;;;;;;;;;;;;;;;38.34;21.42;100844.80;1729814;81;25829;-56
2022/06/25 12:35:41;;;;;;;;;;;;;;;38.49;20.11;100844.13;1726876;81;26423;-56
2022/06/25 12:38:10;;;;;;;;;;;;;;;39.03;19.73;100852.39;1734192;80;25785;-56
2022/06/25 12:40:42;;;;;;;;;;;;;;;38.22;19.90;100848.77;1735506;81;27531;-56
2022/06/25 12:43:10;;;;;;;;;;;;;;;37.21;20.88;100847.56;1735319;81;25800;-56
2022/06/25 12:45:38;;;;;;;;;;;;;;;36.23;21.96;100851.73;1727321;81;25867;-56
2022/06/25 12:48:09;;;;;;;;;;;;;;;36.57;21.71;100846.38;1731780;80;25784;-57
2022/06/25 12:50:37;;;;;;;;;;;;;;;37.40;20.86;100840.41;1737347;80;25890;-55
2022/06/25 12:53:12;;;;;;;;;;;;;;;38.27;20.16;100841.59;1718200;81;28270;-56
2022/06/25 12:55:41;;;;;;;;;;;;;;;38.39;20.48;100845.23;1728649;80;25935;-56
2022/06/25 12:58:09;;;;;;;;;;;;;;;38.39;20.41;100847.22;1720755;80;25855;-56
2022/06/25 13:00:37;;;;;;;;;;;;;;;37.89;20.58;100842.04;1722267;80;27128;-57